sensor_id;sensor_type;location;lat;lon;timestamp;P1;durP1;ratioP1;P2;durP2;ratioP2
29550;SDS011;16488;52.396;10.696;2022-12-18T00:00:41;82.68;;;38.10;;
29550;SDS011;16488;52.396;10.696;2022-12-18T00:03:07;104.20;;;40.33;;
29550;SDS011;16488;52.396;10.696;2022-12-18T00:05:33;99.53;;;40.67;;
29550;SDS011;16488;52.396;10.696;2022-12-18T00:07:59;88.05;;;37.85;;
29550;SDS011;16488;52.396;10.696;2022-12-18T00:10:25;90.82;;;40.88;;
29550;SDS011;16488;52.396;10.696;2022-12-18T00:12:51;94.13;;;41.20;;
29550;SDS011;16488;52.396;10.696;2022-12-18T00:15:16;96.65;;;39.85;;
29550;SDS011;16488;52.396;10.696;2022-12-18T00:17:42;93.75;;;39.75;;
29550;SDS011;16488;52.396;10.696;2022-12-18T00:20:08;96.55;;;38.75;;
29550;SDS011;16488;52.396;10.696;2022-12-18T00:22:35;90.82;;;39.17;;
29550;SDS011;16488;52.396;10.696;2022-12-18T00:25:01;90.57;;;39.03;;
29550;SDS011;16488;52.396;10.696;2022-12-18T00:27:26;92.13;;;40.70;;
29550;SDS011;16488;52.396;10.696;2022-12-18T00:29:52;103.70;;;41.67;;
29550;SDS011;16488;52.396;10.696;2022-12-18T00:32:18;90.07;;;39.28;;
29550;SDS011;16488;52.396;10.696;2022-12-18T00:34:44;93.63;;;42.80;;
29550;SDS011;16488;52.396;10.696;2022-12-18T00:37:10;92.78;;;38.63;;
29550;SDS011;16488;52.396;10.696;2022-12-18T00:39:36;91.70;;;38.53;;
29550;SDS011;16488;52.396;10.696;2022-12-18T00:42:02;92.40;;;38.60;;
29550;SDS011;16488;52.396;10.696;2022-12-18T00:44:47;83.90;;;36.38;;
29550;SDS011;16488;52.396;10.696;2022-12-18T00:47:13;89.88;;;38.00;;
29550;SDS011;16488;52.396;10.696;2022-12-18T00:49:38;88.72;;;39.88;;
29550;SDS011;16488;52.396;10.696;2022-12-18T00:52:04;86.70;;;37.65;;
29550;SDS011;16488;52.396;10.696;2022-12-18T00:54:30;84.63;;;36.78;;
29550;SDS011;16488;52.396;10.696;2022-12-18T00:56:56;83.10;;;37.05;;
29550;SDS011;16488;52.396;10.696;2022-12-18T00:59:22;85.63;;;36.20;;
29550;SDS011;16488;52.396;10.696;2022-12-18T01:01:51;88.28;;;38.20;;
29550;SDS011;16488;52.396;10.696;2022-12-18T01:04:17;97.82;;;39.20;;
29550;SDS011;16488;52.396;10.696;2022-12-18T01:06:43;87.32;;;36.55;;
29550;SDS011;16488;52.396;10.696;2022-12-18T01:09:09;89.30;;;37.17;;
29550;SDS011;16488;52.396;10.696;2022-12-18T01:11:36;78.32;;;36.53;;
29550;SDS011;16488;52.396;10.696;2022-12-18T01:14:02;93.03;;;38.80;;
29550;SDS011;16488;52.396;10.696;2022-12-18T01:16:28;92.50;;;37.92;;
29550;SDS011;16488;52.396;10.696;2022-12-18T01:18:54;90.63;;;41.72;;
29550;SDS011;16488;52.396;10.696;2022-12-18T01:21:21;86.60;;;38.25;;
29550;SDS011;16488;52.396;10.696;2022-12-18T01:23:50;84.78;;;36.95;;
29550;SDS011;16488;52.396;10.696;2022-12-18T01:26:17;89.03;;;36.95;;
29550;SDS011;16488;52.396;10.696;2022-12-18T01:28:43;85.20;;;37.15;;
29550;SDS011;16488;52.396;10.696;2022-12-18T01:31:13;76.00;;;32.83;;
29550;SDS011;16488;52.396;10.696;2022-12-18T01:33:39;84.68;;;37.22;;
29550;SDS011;16488;52.396;10.696;2022-12-18T01:36:05;81.32;;;34.53;;
29550;SDS011;16488;52.396;10.696;2022-12-18T01:38:31;81.28;;;35.70;;
29550;SDS011;16488;52.396;10.696;2022-12-18T01:40:58;77.18;;;34.58;;
29550;SDS011;16488;52.396;10.696;2022-12-18T01:43:44;79.47;;;35.75;;
29550;SDS011;16488;52.396;10.696;2022-12-18T01:46:10;73.75;;;32.33;;
29550;SDS011;16488;52.396;10.696;2022-12-18T01:48:36;79.78;;;33.88;;
29550;SDS011;16488;52.396;10.696;2022-12-18T01:51:02;90.63;;;35.83;;
29550;SDS011;16488;52.396;10.696;2022-12-18T01:53:28;78.32;;;33.42;;
29550;SDS011;16488;52.396;10.696;2022-12-18T01:55:55;78.65;;;36.92;;
29550;SDS011;16488;52.396;10.696;2022-12-18T01:58:27;80.60;;;34.53;;
29550;SDS011;16488;52.396;10.696;2022-12-18T02:00:55;76.90;;;33.25;;
29550;SDS011;16488;52.396;10.696;2022-12-18T02:03:21;79.35;;;34.10;;
29550;SDS011;16488;52.396;10.696;2022-12-18T02:10:46;79.03;;;35.50;;
29550;SDS011;16488;52.396;10.696;2022-12-18T02:13:19;76.00;;;34.15;;
29550;SDS011;16488;52.396;10.696;2022-12-18T02:18:50;77.85;;;32.83;;
29550;SDS011;16488;52.396;10.696;2022-12-18T02:21:21;79.75;;;35.30;;
29550;SDS011;16488;52.396;10.696;2022-12-18T02:23:52;80.13;;;34.25;;
29550;SDS011;16488;52.396;10.696;2022-12-18T02:26:54;82.50;;;35.30;;
29550;SDS011;16488;52.396;10.696;2022-12-18T02:29:33;77.72;;;31.55;;
29550;SDS011;16488;52.396;10.696;2022-12-18T02:32:01;77.13;;;33.90;;
29550;SDS011;16488;52.396;10.696;2022-12-18T02:34:29;70.97;;;33.70;;
29550;SDS011;16488;52.396;10.696;2022-12-18T02:36:56;87.95;;;34.55;;
29550;SDS011;16488;52.396;10.696;2022-12-18T02:39:23;85.63;;;35.70;;
29550;SDS011;16488;52.396;10.696;2022-12-18T02:41:50;76.00;;;33.90;;
29550;SDS011;16488;52.396;10.696;2022-12-18T02:44:17;74.07;;;32.25;;
29550;SDS011;16488;52.396;10.696;2022-12-18T02:46:43;77.25;;;30.80;;
29550;SDS011;16488;52.396;10.696;2022-12-18T02:49:31;73.53;;;32.90;;
29550;SDS011;16488;52.396;10.696;2022-12-18T02:52:19;79.00;;;33.72;;
29550;SDS011;16488;52.396;10.696;2022-12-18T02:57:36;73.78;;;33.88;;
29550;SDS011;16488;52.396;10.696;2022-12-18T03:00:16;76.35;;;34.30;;
29550;SDS011;16488;52.396;10.696;2022-12-18T03:05:16;73.00;;;32.67;;
29550;SDS011;16488;52.396;10.696;2022-12-18T03:07:46;64.22;;;29.73;;
29550;SDS011;16488;52.396;10.696;2022-12-18T03:10:13;75.75;;;32.30;;
29550;SDS011;16488;52.396;10.696;2022-12-18T03:12:42;68.72;;;30.77;;
29550;SDS011;16488;52.396;10.696;2022-12-18T03:15:10;67.93;;;31.02;;
29550;SDS011;16488;52.396;10.696;2022-12-18T03:17:38;73.63;;;32.70;;
29550;SDS011;16488;52.396;10.696;2022-12-18T03:20:12;74.65;;;31.05;;
29550;SDS011;16488;52.396;10.696;2022-12-18T03:22:39;72.18;;;31.85;;
29550;SDS011;16488;52.396;10.696;2022-12-18T03:25:09;77.35;;;31.83;;
29550;SDS011;16488;52.396;10.696;2022-12-18T03:27:37;72.65;;;31.00;;
29550;SDS011;16488;52.396;10.696;2022-12-18T03:30:05;78.45;;;32.45;;
29550;SDS011;16488;52.396;10.696;2022-12-18T03:32:46;81.03;;;33.25;;
29550;SDS011;16488;52.396;10.696;2022-12-18T03:35:14;72.00;;;31.40;;
29550;SDS011;16488;52.396;10.696;2022-12-18T03:37:41;84.68;;;33.17;;
29550;SDS011;16488;52.396;10.696;2022-12-18T03:40:07;79.38;;;32.40;;
29550;SDS011;16488;52.396;10.696;2022-12-18T03:47:33;76.10;;;30.35;;
29550;SDS011;16488;52.396;10.696;2022-12-18T03:50:05;74.75;;;29.27;;
29550;SDS011;16488;52.396;10.696;2022-12-18T03:54:58;81.53;;;32.28;;
29550;SDS011;16488;52.396;10.696;2022-12-18T03:57:25;65.57;;;29.70;;
29550;SDS011;16488;52.396;10.696;2022-12-18T04:00:04;75.70;;;33.90;;
29550;SDS011;16488;52.396;10.696;2022-12-18T04:02:31;69.05;;;30.67;;
29550;SDS011;16488;52.396;10.696;2022-12-18T04:04:58;73.80;;;30.45;;
29550;SDS011;16488;52.396;10.696;2022-12-18T04:07:25;74.63;;;31.38;;
29550;SDS011;16488;52.396;10.696;2022-12-18T04:09:52;70.15;;;29.55;;
29550;SDS011;16488;52.396;10.696;2022-12-18T04:12:19;78.53;;;31.80;;
29550;SDS011;16488;52.396;10.696;2022-12-18T04:14:45;71.43;;;32.70;;
29550;SDS011;16488;52.396;10.696;2022-12-18T04:17:11;77.82;;;31.17;;
29550;SDS011;16488;52.396;10.696;2022-12-18T04:19:37;68.45;;;31.42;;
29550;SDS011;16488;52.396;10.696;2022-12-18T04:22:03;71.95;;;31.42;;
29550;SDS011;16488;52.396;10.696;2022-12-18T04:24:29;72.20;;;29.70;;
29550;SDS011;16488;52.396;10.696;2022-12-18T04:26:55;75.22;;;30.52;;
29550;SDS011;16488;52.396;10.696;2022-12-18T04:29:20;71.18;;;30.45;;
29550;SDS011;16488;52.396;10.696;2022-12-18T04:31:46;68.75;;;30.85;;
29550;SDS011;16488;52.396;10.696;2022-12-18T04:34:12;65.10;;;27.95;;
29550;SDS011;16488;52.396;10.696;2022-12-18T04:36:38;65.90;;;27.65;;
29550;SDS011;16488;52.396;10.696;2022-12-18T04:39:04;68.28;;;28.38;;
29550;SDS011;16488;52.396;10.696;2022-12-18T04:41:30;65.40;;;25.75;;
29550;SDS011;16488;52.396;10.696;2022-12-18T04:43:56;61.95;;;26.90;;
29550;SDS011;16488;52.396;10.696;2022-12-18T04:46:22;63.15;;;26.88;;
29550;SDS011;16488;52.396;10.696;2022-12-18T04:48:48;57.10;;;25.58;;
29550;SDS011;16488;52.396;10.696;2022-12-18T04:51:14;57.75;;;26.42;;
29550;SDS011;16488;52.396;10.696;2022-12-18T04:53:40;76.20;;;28.45;;
29550;SDS011;16488;52.396;10.696;2022-12-18T04:56:07;64.75;;;27.88;;
29550;SDS011;16488;52.396;10.696;2022-12-18T04:58:33;59.85;;;25.33;;
29550;SDS011;16488;52.396;10.696;2022-12-18T05:00:59;57.88;;;26.45;;
29550;SDS011;16488;52.396;10.696;2022-12-18T05:03:25;57.67;;;26.30;;
29550;SDS011;16488;52.396;10.696;2022-12-18T05:05:51;52.08;;;25.52;;
29550;SDS011;16488;52.396;10.696;2022-12-18T05:08:18;52.58;;;22.65;;
29550;SDS011;16488;52.396;10.696;2022-12-18T05:10:44;59.60;;;25.75;;
29550;SDS011;16488;52.396;10.696;2022-12-18T05:13:10;58.03;;;24.33;;
29550;SDS011;16488;52.396;10.696;2022-12-18T05:15:36;57.95;;;27.88;;
29550;SDS011;16488;52.396;10.696;2022-12-18T05:18:02;55.38;;;27.27;;
29550;SDS011;16488;52.396;10.696;2022-12-18T05:20:28;62.15;;;25.65;;
29550;SDS011;16488;52.396;10.696;2022-12-18T05:22:54;54.88;;;26.08;;
29550;SDS011;16488;52.396;10.696;2022-12-18T05:25:20;56.60;;;25.48;;
29550;SDS011;16488;52.396;10.696;2022-12-18T05:27:47;60.95;;;25.70;;
29550;SDS011;16488;52.396;10.696;2022-12-18T05:30:13;50.50;;;23.88;;
29550;SDS011;16488;52.396;10.696;2022-12-18T05:32:39;67.28;;;24.35;;
29550;SDS011;16488;52.396;10.696;2022-12-18T05:35:05;52.40;;;23.63;;
29550;SDS011;16488;52.396;10.696;2022-12-18T05:37:32;64.20;;;25.00;;
29550;SDS011;16488;52.396;10.696;2022-12-18T05:39:57;53.92;;;23.10;;
29550;SDS011;16488;52.396;10.696;2022-12-18T05:42:23;55.33;;;25.60;;
29550;SDS011;16488;52.396;10.696;2022-12-18T05:44:49;58.30;;;23.00;;
29550;SDS011;16488;52.396;10.696;2022-12-18T05:47:16;56.72;;;25.33;;
29550;SDS011;16488;52.396;10.696;2022-12-18T05:49:42;50.78;;;23.33;;
29550;SDS011;16488;52.396;10.696;2022-12-18T05:52:08;49.08;;;21.42;;
29550;SDS011;16488;52.396;10.696;2022-12-18T05:54:34;58.38;;;23.80;;
29550;SDS011;16488;52.396;10.696;2022-12-18T05:57:00;54.92;;;23.65;;
29550;SDS011;16488;52.396;10.696;2022-12-18T05:59:26;44.60;;;21.88;;
29550;SDS011;16488;52.396;10.696;2022-12-18T06:01:52;47.58;;;22.63;;
29550;SDS011;16488;52.396;10.696;2022-12-18T06:04:18;45.38;;;20.33;;
29550;SDS011;16488;52.396;10.696;2022-12-18T06:06:44;48.55;;;21.98;;
29550;SDS011;16488;52.396;10.696;2022-12-18T06:09:10;48.63;;;20.10;;
29550;SDS011;16488;52.396;10.696;2022-12-18T06:11:37;44.88;;;19.67;;
29550;SDS011;16488;52.396;10.696;2022-12-18T06:14:03;39.22;;;20.42;;
29550;SDS011;16488;52.396;10.696;2022-12-18T06:16:30;44.13;;;20.42;;
29550;SDS011;16488;52.396;10.696;2022-12-18T06:18:57;39.45;;;19.17;;
29550;SDS011;16488;52.396;10.696;2022-12-18T06:21:23;38.97;;;18.48;;
29550;SDS011;16488;52.396;10.696;2022-12-18T06:23:49;46.33;;;19.60;;
29550;SDS011;16488;52.396;10.696;2022-12-18T06:26:15;37.58;;;19.75;;
29550;SDS011;16488;52.396;10.696;2022-12-18T06:28:41;47.17;;;19.98;;
29550;SDS011;16488;52.396;10.696;2022-12-18T06:31:07;46.70;;;20.63;;
29550;SDS011;16488;52.396;10.696;2022-12-18T06:33:33;56.15;;;21.65;;
29550;SDS011;16488;52.396;10.696;2022-12-18T06:36:02;45.53;;;21.23;;
29550;SDS011;16488;52.396;10.696;2022-12-18T06:38:29;52.00;;;23.48;;
29550;SDS011;16488;52.396;10.696;2022-12-18T06:40:54;50.08;;;23.45;;
29550;SDS011;16488;52.396;10.696;2022-12-18T06:43:20;42.60;;;20.67;;
29550;SDS011;16488;52.396;10.696;2022-12-18T06:45:46;47.83;;;23.20;;
29550;SDS011;16488;52.396;10.696;2022-12-18T06:48:17;53.03;;;23.83;;
29550;SDS011;16488;52.396;10.696;2022-12-18T06:50:43;59.45;;;25.92;;
29550;SDS011;16488;52.396;10.696;2022-12-18T06:53:09;58.38;;;24.35;;
29550;SDS011;16488;52.396;10.696;2022-12-18T06:55:35;51.00;;;23.45;;
29550;SDS011;16488;52.396;10.696;2022-12-18T06:58:01;53.42;;;24.27;;
29550;SDS011;16488;52.396;10.696;2022-12-18T07:00:27;51.10;;;24.48;;
29550;SDS011;16488;52.396;10.696;2022-12-18T07:02:53;56.92;;;24.77;;
29550;SDS011;16488;52.396;10.696;2022-12-18T07:05:18;56.25;;;25.92;;
29550;SDS011;16488;52.396;10.696;2022-12-18T07:07:44;51.63;;;24.50;;
29550;SDS011;16488;52.396;10.696;2022-12-18T07:10:10;57.15;;;26.30;;
29550;SDS011;16488;52.396;10.696;2022-12-18T07:12:36;60.05;;;25.40;;
29550;SDS011;16488;52.396;10.696;2022-12-18T07:15:02;56.30;;;26.52;;
29550;SDS011;16488;52.396;10.696;2022-12-18T07:17:29;58.40;;;25.98;;
29550;SDS011;16488;52.396;10.696;2022-12-18T07:19:54;52.63;;;24.73;;
29550;SDS011;16488;52.396;10.696;2022-12-18T07:22:21;54.75;;;25.33;;
29550;SDS011;16488;52.396;10.696;2022-12-18T07:24:50;48.28;;;24.00;;
29550;SDS011;16488;52.396;10.696;2022-12-18T07:27:16;57.28;;;25.70;;
29550;SDS011;16488;52.396;10.696;2022-12-18T07:29:42;57.50;;;26.95;;
29550;SDS011;16488;52.396;10.696;2022-12-18T07:32:08;60.00;;;25.90;;
29550;SDS011;16488;52.396;10.696;2022-12-18T07:34:34;50.67;;;23.77;;
29550;SDS011;16488;52.396;10.696;2022-12-18T07:37:00;57.50;;;26.15;;
29550;SDS011;16488;52.396;10.696;2022-12-18T07:39:26;58.33;;;27.85;;
29550;SDS011;16488;52.396;10.696;2022-12-18T07:41:52;63.97;;;27.08;;
29550;SDS011;16488;52.396;10.696;2022-12-18T07:44:41;54.35;;;25.42;;
29550;SDS011;16488;52.396;10.696;2022-12-18T07:47:07;58.33;;;26.73;;
29550;SDS011;16488;52.396;10.696;2022-12-18T07:49:33;56.05;;;27.10;;
29550;SDS011;16488;52.396;10.696;2022-12-18T07:51:59;62.47;;;27.77;;
29550;SDS011;16488;52.396;10.696;2022-12-18T07:54:25;63.08;;;27.25;;
29550;SDS011;16488;52.396;10.696;2022-12-18T07:56:51;66.72;;;27.25;;
29550;SDS011;16488;52.396;10.696;2022-12-18T07:59:17;57.88;;;26.45;;
29550;SDS011;16488;52.396;10.696;2022-12-18T08:01:43;69.95;;;28.45;;
29550;SDS011;16488;52.396;10.696;2022-12-18T08:04:10;57.85;;;27.23;;
29550;SDS011;16488;52.396;10.696;2022-12-18T08:06:36;57.28;;;26.17;;
29550;SDS011;16488;52.396;10.696;2022-12-18T08:09:02;56.25;;;26.38;;
29550;SDS011;16488;52.396;10.696;2022-12-18T08:11:28;60.08;;;26.77;;
29550;SDS011;16488;52.396;10.696;2022-12-18T08:13:54;64.10;;;28.23;;
29550;SDS011;16488;52.396;10.696;2022-12-18T08:16:21;59.70;;;26.30;;
29550;SDS011;16488;52.396;10.696;2022-12-18T08:18:47;65.78;;;28.05;;
29550;SDS011;16488;52.396;10.696;2022-12-18T08:21:14;56.22;;;26.17;;
29550;SDS011;16488;52.396;10.696;2022-12-18T08:23:41;56.42;;;27.33;;
29550;SDS011;16488;52.396;10.696;2022-12-18T08:26:07;56.95;;;28.48;;
29550;SDS011;16488;52.396;10.696;2022-12-18T08:28:33;59.83;;;27.58;;
29550;SDS011;16488;52.396;10.696;2022-12-18T08:30:59;56.53;;;25.80;;
29550;SDS011;16488;52.396;10.696;2022-12-18T08:33:25;58.22;;;26.77;;
29550;SDS011;16488;52.396;10.696;2022-12-18T08:35:52;58.30;;;27.83;;
29550;SDS011;16488;52.396;10.696;2022-12-18T08:38:18;59.63;;;27.15;;
29550;SDS011;16488;52.396;10.696;2022-12-18T08:40:43;59.50;;;28.50;;
29550;SDS011;16488;52.396;10.696;2022-12-18T08:43:10;59.50;;;27.52;;
29550;SDS011;16488;52.396;10.696;2022-12-18T08:45:54;64.05;;;30.38;;
29550;SDS011;16488;52.396;10.696;2022-12-18T08:48:21;65.18;;;29.92;;
29550;SDS011;16488;52.396;10.696;2022-12-18T08:50:54;80.45;;;38.60;;
29550;SDS011;16488;52.396;10.696;2022-12-18T08:53:20;82.80;;;38.45;;
29550;SDS011;16488;52.396;10.696;2022-12-18T08:55:46;79.38;;;36.78;;
29550;SDS011;16488;52.396;10.696;2022-12-18T08:58:11;80.45;;;38.20;;
29550;SDS011;16488;52.396;10.696;2022-12-18T09:00:37;81.05;;;36.75;;
29550;SDS011;16488;52.396;10.696;2022-12-18T09:03:03;89.68;;;40.65;;
29550;SDS011;16488;52.396;10.696;2022-12-18T09:05:30;93.93;;;42.25;;
29550;SDS011;16488;52.396;10.696;2022-12-18T09:07:56;111.40;;;46.05;;
29550;SDS011;16488;52.396;10.696;2022-12-18T09:10:22;103.47;;;44.92;;
29550;SDS011;16488;52.396;10.696;2022-12-18T09:12:48;107.55;;;45.30;;
29550;SDS011;16488;52.396;10.696;2022-12-18T09:15:14;104.50;;;45.47;;
29550;SDS011;16488;52.396;10.696;2022-12-18T09:17:40;72.03;;;32.30;;
29550;SDS011;16488;52.396;10.696;2022-12-18T09:20:06;79.90;;;35.38;;
29550;SDS011;16488;52.396;10.696;2022-12-18T09:22:32;64.03;;;29.67;;
29550;SDS011;16488;52.396;10.696;2022-12-18T09:24:58;46.80;;;20.48;;
29550;SDS011;16488;52.396;10.696;2022-12-18T09:27:24;64.72;;;23.88;;
29550;SDS011;16488;52.396;10.696;2022-12-18T09:29:50;61.83;;;26.33;;
29550;SDS011;16488;52.396;10.696;2022-12-18T09:32:16;58.35;;;25.27;;
29550;SDS011;16488;52.396;10.696;2022-12-18T09:34:42;46.55;;;22.20;;
29550;SDS011;16488;52.396;10.696;2022-12-18T09:37:08;47.85;;;21.15;;
29550;SDS011;16488;52.396;10.696;2022-12-18T09:39:34;67.20;;;22.67;;
29550;SDS011;16488;52.396;10.696;2022-12-18T09:42:00;42.88;;;20.98;;
29550;SDS011;16488;52.396;10.696;2022-12-18T09:44:36;40.28;;;19.55;;
29550;SDS011;16488;52.396;10.696;2022-12-18T09:52:09;33.60;;;18.23;;
29550;SDS011;16488;52.396;10.696;2022-12-18T09:54:38;28.42;;;15.50;;
29550;SDS011;16488;52.396;10.696;2022-12-18T09:57:04;27.83;;;15.32;;
29550;SDS011;16488;52.396;10.696;2022-12-18T09:59:32;27.13;;;14.93;;
29550;SDS011;16488;52.396;10.696;2022-12-18T10:02:00;33.17;;;16.77;;
29550;SDS011;16488;52.396;10.696;2022-12-18T10:04:27;27.63;;;15.05;;
29550;SDS011;16488;52.396;10.696;2022-12-18T10:12:09;27.50;;;16.08;;
29550;SDS011;16488;52.396;10.696;2022-12-18T10:17:22;27.02;;;15.20;;
29550;SDS011;16488;52.396;10.696;2022-12-18T10:25:06;27.42;;;14.80;;
29550;SDS011;16488;52.396;10.696;2022-12-18T10:27:39;28.98;;;15.02;;
29550;SDS011;16488;52.396;10.696;2022-12-18T10:30:13;27.13;;;15.45;;
29550;SDS011;16488;52.396;10.696;2022-12-18T10:32:39;25.05;;;14.13;;
29550;SDS011;16488;52.396;10.696;2022-12-18T10:35:07;29.38;;;14.80;;
29550;SDS011;16488;52.396;10.696;2022-12-18T10:37:37;29.10;;;15.50;;
29550;SDS011;16488;52.396;10.696;2022-12-18T10:40:23;32.20;;;18.45;;
29550;SDS011;16488;52.396;10.696;2022-12-18T10:45:33;31.83;;;16.25;;
29550;SDS011;16488;52.396;10.696;2022-12-18T10:47:59;28.05;;;16.92;;
29550;SDS011;16488;52.396;10.696;2022-12-18T10:52:53;30.45;;;16.30;;
29550;SDS011;16488;52.396;10.696;2022-12-18T10:55:20;26.77;;;15.32;;
29550;SDS011;16488;52.396;10.696;2022-12-18T10:57:46;26.77;;;14.82;;
29550;SDS011;16488;52.396;10.696;2022-12-18T11:00:22;31.73;;;16.88;;
29550;SDS011;16488;52.396;10.696;2022-12-18T11:02:49;30.58;;;15.98;;
29550;SDS011;16488;52.396;10.696;2022-12-18T11:05:23;25.77;;;15.30;;
29550;SDS011;16488;52.396;10.696;2022-12-18T11:07:50;30.80;;;17.48;;
29550;SDS011;16488;52.396;10.696;2022-12-18T11:10:19;28.10;;;15.20;;
29550;SDS011;16488;52.396;10.696;2022-12-18T11:12:45;38.15;;;15.90;;
29550;SDS011;16488;52.396;10.696;2022-12-18T11:15:26;27.33;;;14.45;;
29550;SDS011;16488;52.396;10.696;2022-12-18T11:17:53;31.13;;;14.88;;
29550;SDS011;16488;52.396;10.696;2022-12-18T11:22:53;28.50;;;14.35;;
29550;SDS011;16488;52.396;10.696;2022-12-18T11:25:20;35.60;;;17.58;;
29550;SDS011;16488;52.396;10.696;2022-12-18T11:27:56;30.17;;;15.90;;
29550;SDS011;16488;52.396;10.696;2022-12-18T11:30:35;45.97;;;19.77;;
29550;SDS011;16488;52.396;10.696;2022-12-18T11:33:20;26.98;;;14.93;;
29550;SDS011;16488;52.396;10.696;2022-12-18T11:35:51;27.73;;;14.80;;
29550;SDS011;16488;52.396;10.696;2022-12-18T11:40:50;29.80;;;15.43;;
29550;SDS011;16488;52.396;10.696;2022-12-18T11:43:28;34.83;;;17.90;;
29550;SDS011;16488;52.396;10.696;2022-12-18T11:48:36;31.20;;;17.13;;
29550;SDS011;16488;52.396;10.696;2022-12-18T11:51:04;34.88;;;19.02;;
29550;SDS011;16488;52.396;10.696;2022-12-18T11:53:31;25.92;;;14.73;;
29550;SDS011;16488;52.396;10.696;2022-12-18T11:59:00;30.75;;;14.68;;
29550;SDS011;16488;52.396;10.696;2022-12-18T12:01:41;35.45;;;16.88;;
29550;SDS011;16488;52.396;10.696;2022-12-18T12:09:19;37.78;;;18.55;;
29550;SDS011;16488;52.396;10.696;2022-12-18T12:11:51;29.85;;;14.20;;
29550;SDS011;16488;52.396;10.696;2022-12-18T12:16:50;39.55;;;17.80;;
29550;SDS011;16488;52.396;10.696;2022-12-18T12:22:08;27.75;;;14.82;;
29550;SDS011;16488;52.396;10.696;2022-12-18T12:24:49;25.90;;;13.80;;
29550;SDS011;16488;52.396;10.696;2022-12-18T12:33:12;24.08;;;12.35;;
29550;SDS011;16488;52.396;10.696;2022-12-18T12:35:44;20.52;;;11.80;;
29550;SDS011;16488;52.396;10.696;2022-12-18T12:38:16;19.02;;;11.13;;
29550;SDS011;16488;52.396;10.696;2022-12-18T12:40:51;22.08;;;13.07;;
29550;SDS011;16488;52.396;10.696;2022-12-18T12:45:56;24.70;;;11.82;;
29550;SDS011;16488;52.396;10.696;2022-12-18T12:50:52;17.67;;;10.45;;
29550;SDS011;16488;52.396;10.696;2022-12-18T12:53:21;19.27;;;11.73;;
29550;SDS011;16488;52.396;10.696;2022-12-18T12:55:49;21.58;;;12.18;;
29550;SDS011;16488;52.396;10.696;2022-12-18T12:58:19;21.58;;;12.73;;
29550;SDS011;16488;52.396;10.696;2022-12-18T13:00:57;24.02;;;10.93;;
29550;SDS011;16488;52.396;10.696;2022-12-18T13:03:46;19.65;;;11.45;;
29550;SDS011;16488;52.396;10.696;2022-12-18T13:06:30;27.80;;;13.95;;
29550;SDS011;16488;52.396;10.696;2022-12-18T13:08:59;25.75;;;12.18;;
29550;SDS011;16488;52.396;10.696;2022-12-18T13:11:29;25.65;;;11.55;;
29550;SDS011;16488;52.396;10.696;2022-12-18T13:14:25;20.17;;;11.60;;
29550;SDS011;16488;52.396;10.696;2022-12-18T13:16:51;24.27;;;11.93;;
29550;SDS011;16488;52.396;10.696;2022-12-18T13:19:23;22.83;;;11.20;;
29550;SDS011;16488;52.396;10.696;2022-12-18T13:21:52;19.08;;;12.20;;
29550;SDS011;16488;52.396;10.696;2022-12-18T13:24:23;22.30;;;11.43;;
29550;SDS011;16488;52.396;10.696;2022-12-18T13:26:50;22.55;;;12.35;;
29550;SDS011;16488;52.396;10.696;2022-12-18T13:29:40;25.00;;;13.38;;
29550;SDS011;16488;52.396;10.696;2022-12-18T13:32:02;25.02;;;13.32;;
29550;SDS011;16488;52.396;10.696;2022-12-18T13:34:29;28.15;;;14.30;;
29550;SDS011;16488;52.396;10.696;2022-12-18T13:39:40;22.13;;;12.10;;
29550;SDS011;16488;52.396;10.696;2022-12-18T13:46:58;23.08;;;12.30;;
29550;SDS011;16488;52.396;10.696;2022-12-18T13:49:36;22.67;;;12.38;;
29550;SDS011;16488;52.396;10.696;2022-12-18T13:52:03;25.92;;;13.60;;
29550;SDS011;16488;52.396;10.696;2022-12-18T13:54:40;34.28;;;14.18;;
29550;SDS011;16488;52.396;10.696;2022-12-18T13:59:51;28.13;;;14.88;;
29550;SDS011;16488;52.396;10.696;2022-12-18T14:04:47;31.15;;;15.80;;
29550;SDS011;16488;52.396;10.696;2022-12-18T14:07:16;32.50;;;15.15;;
29550;SDS011;16488;52.396;10.696;2022-12-18T14:09:47;35.45;;;16.38;;
29550;SDS011;16488;52.396;10.696;2022-12-18T14:12:15;35.90;;;16.02;;
29550;SDS011;16488;52.396;10.696;2022-12-18T14:15:01;34.88;;;17.67;;
29550;SDS011;16488;52.396;10.696;2022-12-18T14:17:27;33.78;;;16.15;;
29550;SDS011;16488;52.396;10.696;2022-12-18T14:22:21;30.85;;;16.38;;
29550;SDS011;16488;52.396;10.696;2022-12-18T14:24:47;34.55;;;17.23;;
29550;SDS011;16488;52.396;10.696;2022-12-18T14:27:24;30.50;;;17.27;;
29550;SDS011;16488;52.396;10.696;2022-12-18T14:29:51;36.00;;;16.92;;
29550;SDS011;16488;52.396;10.696;2022-12-18T14:32:18;34.65;;;17.48;;
29550;SDS011;16488;52.396;10.696;2022-12-18T14:34:45;37.75;;;19.27;;
29550;SDS011;16488;52.396;10.696;2022-12-18T14:37:12;33.30;;;16.88;;
29550;SDS011;16488;52.396;10.696;2022-12-18T14:39:39;44.70;;;21.27;;
29550;SDS011;16488;52.396;10.696;2022-12-18T14:42:05;49.28;;;19.38;;
29550;SDS011;16488;52.396;10.696;2022-12-18T14:44:31;36.17;;;18.70;;
29550;SDS011;16488;52.396;10.696;2022-12-18T14:49:27;43.72;;;17.60;;
29550;SDS011;16488;52.396;10.696;2022-12-18T14:51:55;48.80;;;21.40;;
29550;SDS011;16488;52.396;10.696;2022-12-18T14:54:22;43.05;;;18.75;;
29550;SDS011;16488;52.396;10.696;2022-12-18T14:56:55;39.10;;;19.63;;
29550;SDS011;16488;52.396;10.696;2022-12-18T14:59:23;40.83;;;20.30;;
29550;SDS011;16488;52.396;10.696;2022-12-18T15:02:23;37.78;;;20.65;;
29550;SDS011;16488;52.396;10.696;2022-12-18T15:04:41;35.25;;;17.83;;
29550;SDS011;16488;52.396;10.696;2022-12-18T15:07:19;33.83;;;18.25;;
29550;SDS011;16488;52.396;10.696;2022-12-18T15:12:36;39.03;;;20.00;;
29550;SDS011;16488;52.396;10.696;2022-12-18T15:17:28;39.25;;;18.42;;
29550;SDS011;16488;52.396;10.696;2022-12-18T15:22:30;34.40;;;16.42;;
29550;SDS011;16488;52.396;10.696;2022-12-18T15:24:58;34.85;;;17.95;;
29550;SDS011;16488;52.396;10.696;2022-12-18T15:27:27;35.13;;;16.80;;
29550;SDS011;16488;52.396;10.696;2022-12-18T15:32:39;35.58;;;17.23;;
29550;SDS011;16488;52.396;10.696;2022-12-18T15:35:13;40.65;;;18.08;;
29550;SDS011;16488;52.396;10.696;2022-12-18T15:37:39;39.10;;;17.38;;
29550;SDS011;16488;52.396;10.696;2022-12-18T15:40:06;35.63;;;17.02;;
29550;SDS011;16488;52.396;10.696;2022-12-18T15:42:33;33.58;;;16.00;;
29550;SDS011;16488;52.396;10.696;2022-12-18T15:45:18;28.98;;;15.18;;
29550;SDS011;16488;52.396;10.696;2022-12-18T15:47:44;37.90;;;16.90;;
29550;SDS011;16488;52.396;10.696;2022-12-18T15:50:10;27.48;;;15.30;;
29550;SDS011;16488;52.396;10.696;2022-12-18T15:55:02;34.47;;;15.50;;
29550;SDS011;16488;52.396;10.696;2022-12-18T15:57:48;32.38;;;15.05;;
29550;SDS011;16488;52.396;10.696;2022-12-18T16:00:14;30.75;;;14.30;;
29550;SDS011;16488;52.396;10.696;2022-12-18T16:02:40;29.55;;;15.43;;